sensor_id;sensor_type;location;lat;lon;timestamp;P1;durP1;ratioP1;P2;durP2;ratioP2
14903;SDS011;7543;53.148;8.234;2022-12-07T00:01:17;5.93;;;3.37;;
14903;SDS011;7543;53.148;8.234;2022-12-07T00:03:48;5.83;;;3.27;;
14903;SDS011;7543;53.148;8.234;2022-12-07T00:06:17;5.43;;;2.87;;
14903;SDS011;7543;53.148;8.234;2022-12-07T00:08:46;5.23;;;3.03;;
14903;SDS011;7543;53.148;8.234;2022-12-07T00:11:16;5.57;;;3.13;;
14903;SDS011;7543;53.148;8.234;2022-12-07T00:13:45;6.10;;;3.27;;
14903;SDS011;7543;53.148;8.234;2022-12-07T00:16:14;8.07;;;3.77;;
14903;SDS011;7543;53.148;8.234;2022-12-07T00:18:44;4.50;;;3.07;;
14903;SDS011;7543;53.148;8.234;2022-12-07T00:21:14;4.23;;;2.90;;
14903;SDS011;7543;53.148;8.234;2022-12-07T00:23:44;7.47;;;2.40;;
14903;SDS011;7543;53.148;8.234;2022-12-07T00:26:14;4.17;;;2.47;;
14903;SDS011;7543;53.148;8.234;2022-12-07T00:28:44;5.03;;;2.67;;
14903;SDS011;7543;53.148;8.234;2022-12-07T00:31:13;10.20;;;2.97;;
14903;SDS011;7543;53.148;8.234;2022-12-07T00:33:42;5.30;;;2.47;;
14903;SDS011;7543;53.148;8.234;2022-12-07T00:36:11;6.47;;;2.80;;
14903;SDS011;7543;53.148;8.234;2022-12-07T00:38:43;5.60;;;2.43;;
14903;SDS011;7543;53.148;8.234;2022-12-07T00:41:11;7.83;;;2.17;;
14903;SDS011;7543;53.148;8.234;2022-12-07T00:43:41;6.50;;;1.93;;
14903;SDS011;7543;53.148;8.234;2022-12-07T00:46:10;7.60;;;2.67;;
14903;SDS011;7543;53.148;8.234;2022-12-07T00:48:38;3.80;;;1.83;;
14903;SDS011;7543;53.148;8.234;2022-12-07T00:51:07;3.67;;;2.37;;
14903;SDS011;7543;53.148;8.234;2022-12-07T00:53:36;2.67;;;1.80;;
14903;SDS011;7543;53.148;8.234;2022-12-07T00:56:06;3.03;;;1.70;;
14903;SDS011;7543;53.148;8.234;2022-12-07T00:58:35;3.70;;;2.00;;
14903;SDS011;7543;53.148;8.234;2022-12-07T01:01:04;4.53;;;1.77;;
14903;SDS011;7543;53.148;8.234;2022-12-07T01:03:33;3.97;;;2.13;;
14903;SDS011;7543;53.148;8.234;2022-12-07T01:06:01;2.10;;;1.47;;
14903;SDS011;7543;53.148;8.234;2022-12-07T01:08:30;9.53;;;2.10;;
14903;SDS011;7543;53.148;8.234;2022-12-07T01:10:59;4.17;;;2.10;;
14903;SDS011;7543;53.148;8.234;2022-12-07T01:13:29;2.97;;;1.83;;
14903;SDS011;7543;53.148;8.234;2022-12-07T01:15:57;4.13;;;1.87;;
14903;SDS011;7543;53.148;8.234;2022-12-07T01:18:27;4.13;;;1.60;;
14903;SDS011;7543;53.148;8.234;2022-12-07T01:20:57;6.30;;;2.10;;
14903;SDS011;7543;53.148;8.234;2022-12-07T01:23:26;4.87;;;1.90;;
14903;SDS011;7543;53.148;8.234;2022-12-07T01:25:54;6.73;;;1.67;;
14903;SDS011;7543;53.148;8.234;2022-12-07T01:28:23;3.47;;;2.03;;
14903;SDS011;7543;53.148;8.234;2022-12-07T01:30:56;7.93;;;2.57;;
14903;SDS011;7543;53.148;8.234;2022-12-07T01:33:26;2.83;;;1.73;;
14903;SDS011;7543;53.148;8.234;2022-12-07T01:35:54;2.93;;;1.60;;
14903;SDS011;7543;53.148;8.234;2022-12-07T01:38:28;4.27;;;1.87;;
14903;SDS011;7543;53.148;8.234;2022-12-07T01:40:57;4.03;;;2.30;;
14903;SDS011;7543;53.148;8.234;2022-12-07T01:43:27;3.33;;;2.03;;
14903;SDS011;7543;53.148;8.234;2022-12-07T01:46:02;5.27;;;1.80;;
14903;SDS011;7543;53.148;8.234;2022-12-07T01:48:31;4.43;;;2.00;;
14903;SDS011;7543;53.148;8.234;2022-12-07T01:51:01;4.40;;;2.43;;
14903;SDS011;7543;53.148;8.234;2022-12-07T01:53:31;7.53;;;2.20;;
14903;SDS011;7543;53.148;8.234;2022-12-07T01:56:00;7.80;;;2.20;;
14903;SDS011;7543;53.148;8.234;2022-12-07T01:58:28;4.70;;;1.80;;
14903;SDS011;7543;53.148;8.234;2022-12-07T02:00:56;4.10;;;1.87;;
14903;SDS011;7543;53.148;8.234;2022-12-07T02:03:27;2.97;;;1.80;;
14903;SDS011;7543;53.148;8.234;2022-12-07T02:05:59;2.37;;;1.70;;
14903;SDS011;7543;53.148;8.234;2022-12-07T02:08:27;2.63;;;1.80;;
14903;SDS011;7543;53.148;8.234;2022-12-07T02:10:55;8.10;;;2.30;;
14903;SDS011;7543;53.148;8.234;2022-12-07T02:13:26;8.23;;;2.00;;
14903;SDS011;7543;53.148;8.234;2022-12-07T02:16:03;3.17;;;1.70;;
14903;SDS011;7543;53.148;8.234;2022-12-07T02:18:47;6.30;;;2.37;;
14903;SDS011;7543;53.148;8.234;2022-12-07T02:21:25;3.57;;;1.83;;
14903;SDS011;7543;53.148;8.234;2022-12-07T02:27:01;8.73;;;2.30;;
14903;SDS011;7543;53.148;8.234;2022-12-07T02:29:40;2.93;;;1.90;;
14903;SDS011;7543;53.148;8.234;2022-12-07T02:32:13;3.70;;;1.93;;
14903;SDS011;7543;53.148;8.234;2022-12-07T02:34:47;5.30;;;2.53;;
14903;SDS011;7543;53.148;8.234;2022-12-07T02:37:19;3.87;;;1.93;;
14903;SDS011;7543;53.148;8.234;2022-12-07T02:39:54;4.43;;;2.30;;
14903;SDS011;7543;53.148;8.234;2022-12-07T02:42:26;3.90;;;2.33;;
14903;SDS011;7543;53.148;8.234;2022-12-07T02:44:59;3.70;;;2.13;;
14903;SDS011;7543;53.148;8.234;2022-12-07T02:47:29;4.57;;;2.27;;
14903;SDS011;7543;53.148;8.234;2022-12-07T02:49:57;4.97;;;2.43;;
14903;SDS011;7543;53.148;8.234;2022-12-07T02:52:25;6.23;;;2.10;;
14903;SDS011;7543;53.148;8.234;2022-12-07T02:54:53;5.90;;;2.73;;
14903;SDS011;7543;53.148;8.234;2022-12-07T02:57:26;6.03;;;2.37;;
14903;SDS011;7543;53.148;8.234;2022-12-07T03:00:04;3.50;;;2.17;;
14903;SDS011;7543;53.148;8.234;2022-12-07T03:02:36;8.97;;;2.10;;
14903;SDS011;7543;53.148;8.234;2022-12-07T03:05:14;4.47;;;1.77;;
14903;SDS011;7543;53.148;8.234;2022-12-07T03:07:50;4.30;;;2.00;;
14903;SDS011;7543;53.148;8.234;2022-12-07T03:10:22;2.60;;;1.87;;
14903;SDS011;7543;53.148;8.234;2022-12-07T03:12:53;6.37;;;1.87;;
14903;SDS011;7543;53.148;8.234;2022-12-07T03:15:29;1.90;;;1.50;;
14903;SDS011;7543;53.148;8.234;2022-12-07T03:18:00;4.87;;;1.70;;
14903;SDS011;7543;53.148;8.234;2022-12-07T03:20:30;3.03;;;1.33;;
14903;SDS011;7543;53.148;8.234;2022-12-07T03:23:00;2.50;;;1.47;;
14903;SDS011;7543;53.148;8.234;2022-12-07T03:25:28;3.83;;;1.67;;
14903;SDS011;7543;53.148;8.234;2022-12-07T03:27:57;2.37;;;1.50;;
14903;SDS011;7543;53.148;8.234;2022-12-07T03:30:30;1.70;;;1.10;;
14903;SDS011;7543;53.148;8.234;2022-12-07T03:33:03;2.37;;;1.17;;
14903;SDS011;7543;53.148;8.234;2022-12-07T03:35:36;4.77;;;1.30;;
14903;SDS011;7543;53.148;8.234;2022-12-07T03:38:08;1.67;;;1.30;;
14903;SDS011;7543;53.148;8.234;2022-12-07T03:40:43;3.87;;;1.40;;
14903;SDS011;7543;53.148;8.234;2022-12-07T03:43:12;1.80;;;1.00;;
14903;SDS011;7543;53.148;8.234;2022-12-07T03:45:43;1.90;;;0.73;;
14903;SDS011;7543;53.148;8.234;2022-12-07T03:48:15;1.97;;;0.90;;
14903;SDS011;7543;53.148;8.234;2022-12-07T03:50:49;1.20;;;0.60;;
14903;SDS011;7543;53.148;8.234;2022-12-07T03:53:19;3.43;;;0.90;;
14903;SDS011;7543;53.148;8.234;2022-12-07T03:55:50;2.73;;;0.93;;
14903;SDS011;7543;53.148;8.234;2022-12-07T03:58:20;1.90;;;0.70;;
14903;SDS011;7543;53.148;8.234;2022-12-07T04:00:50;1.33;;;0.77;;
14903;SDS011;7543;53.148;8.234;2022-12-07T04:03:18;1.20;;;0.53;;
14903;SDS011;7543;53.148;8.234;2022-12-07T04:05:46;6.40;;;0.93;;
14903;SDS011;7543;53.148;8.234;2022-12-07T04:08:14;1.47;;;0.60;;
14903;SDS011;7543;53.148;8.234;2022-12-07T04:10:43;2.97;;;0.60;;
14903;SDS011;7543;53.148;8.234;2022-12-07T04:13:11;4.17;;;0.80;;
14903;SDS011;7543;53.148;8.234;2022-12-07T04:15:39;0.20;;;0.20;;
14903;SDS011;7543;53.148;8.234;2022-12-07T04:18:08;3.20;;;0.50;;
14903;SDS011;7543;53.148;8.234;2022-12-07T04:20:36;3.17;;;1.00;;
14903;SDS011;7543;53.148;8.234;2022-12-07T04:23:04;1.53;;;0.50;;
14903;SDS011;7543;53.148;8.234;2022-12-07T04:25:33;1.70;;;0.60;;
14903;SDS011;7543;53.148;8.234;2022-12-07T04:28:01;5.37;;;0.60;;
14903;SDS011;7543;53.148;8.234;2022-12-07T04:30:29;4.13;;;0.70;;
14903;SDS011;7543;53.148;8.234;2022-12-07T04:32:57;0.77;;;0.47;;
14903;SDS011;7543;53.148;8.234;2022-12-07T04:35:26;4.27;;;0.60;;
14903;SDS011;7543;53.148;8.234;2022-12-07T04:37:54;4.33;;;1.20;;
14903;SDS011;7543;53.148;8.234;2022-12-07T04:40:22;2.67;;;1.27;;
14903;SDS011;7543;53.148;8.234;2022-12-07T04:42:51;2.10;;;1.17;;
14903;SDS011;7543;53.148;8.234;2022-12-07T04:45:19;1.43;;;0.70;;
14903;SDS011;7543;53.148;8.234;2022-12-07T04:47:47;1.87;;;0.80;;
14903;SDS011;7543;53.148;8.234;2022-12-07T04:50:15;1.53;;;0.40;;
14903;SDS011;7543;53.148;8.234;2022-12-07T04:52:44;0.97;;;0.60;;
14903;SDS011;7543;53.148;8.234;2022-12-07T04:55:12;1.63;;;0.50;;
14903;SDS011;7543;53.148;8.234;2022-12-07T04:57:41;2.10;;;0.70;;
14903;SDS011;7543;53.148;8.234;2022-12-07T05:00:09;2.60;;;0.70;;
14903;SDS011;7543;53.148;8.234;2022-12-07T05:02:38;1.70;;;0.60;;
14903;SDS011;7543;53.148;8.234;2022-12-07T05:05:06;3.13;;;0.60;;
14903;SDS011;7543;53.148;8.234;2022-12-07T05:07:35;0.83;;;0.43;;
14903;SDS011;7543;53.148;8.234;2022-12-07T05:10:05;1.00;;;0.50;;
14903;SDS011;7543;53.148;8.234;2022-12-07T05:12:34;2.50;;;0.70;;
14903;SDS011;7543;53.148;8.234;2022-12-07T05:15:02;2.30;;;0.57;;
14903;SDS011;7543;53.148;8.234;2022-12-07T05:17:31;2.33;;;0.70;;
14903;SDS011;7543;53.148;8.234;2022-12-07T05:19:59;4.57;;;0.50;;
14903;SDS011;7543;53.148;8.234;2022-12-07T05:22:28;1.20;;;0.40;;
14903;SDS011;7543;53.148;8.234;2022-12-07T05:24:56;5.10;;;0.77;;
14903;SDS011;7543;53.148;8.234;2022-12-07T05:27:25;1.17;;;0.50;;
14903;SDS011;7543;53.148;8.234;2022-12-07T05:29:54;0.97;;;0.40;;
14903;SDS011;7543;53.148;8.234;2022-12-07T05:32:22;1.10;;;0.47;;
14903;SDS011;7543;53.148;8.234;2022-12-07T05:34:50;2.37;;;0.53;;
14903;SDS011;7543;53.148;8.234;2022-12-07T05:37:19;3.77;;;0.63;;
14903;SDS011;7543;53.148;8.234;2022-12-07T05:39:47;4.33;;;0.80;;
14903;SDS011;7543;53.148;8.234;2022-12-07T05:42:15;5.07;;;0.60;;
14903;SDS011;7543;53.148;8.234;2022-12-07T05:44:45;0.87;;;0.30;;
14903;SDS011;7543;53.148;8.234;2022-12-07T05:47:14;3.30;;;0.40;;
14903;SDS011;7543;53.148;8.234;2022-12-07T05:49:42;3.03;;;0.53;;
14903;SDS011;7543;53.148;8.234;2022-12-07T05:52:11;0.77;;;0.53;;
14903;SDS011;7543;53.148;8.234;2022-12-07T05:54:39;1.07;;;0.60;;
14903;SDS011;7543;53.148;8.234;2022-12-07T05:57:07;6.13;;;0.90;;
14903;SDS011;7543;53.148;8.234;2022-12-07T05:59:35;5.40;;;0.60;;
14903;SDS011;7543;53.148;8.234;2022-12-07T06:02:05;0.73;;;0.50;;
14903;SDS011;7543;53.148;8.234;2022-12-07T06:04:34;1.23;;;0.60;;
14903;SDS011;7543;53.148;8.234;2022-12-07T06:07:03;2.00;;;0.87;;
14903;SDS011;7543;53.148;8.234;2022-12-07T06:09:32;1.90;;;0.80;;
14903;SDS011;7543;53.148;8.234;2022-12-07T06:12:00;4.77;;;0.60;;
14903;SDS011;7543;53.148;8.234;2022-12-07T06:14:46;1.93;;;0.67;;
14903;SDS011;7543;53.148;8.234;2022-12-07T06:17:15;1.03;;;0.70;;
14903;SDS011;7543;53.148;8.234;2022-12-07T06:19:44;5.83;;;0.70;;
14903;SDS011;7543;53.148;8.234;2022-12-07T06:22:12;0.40;;;0.40;;
14903;SDS011;7543;53.148;8.234;2022-12-07T06:24:43;1.47;;;0.50;;
14903;SDS011;7543;53.148;8.234;2022-12-07T06:27:11;5.80;;;1.00;;
14903;SDS011;7543;53.148;8.234;2022-12-07T06:29:40;1.80;;;0.73;;
14903;SDS011;7543;53.148;8.234;2022-12-07T06:32:08;0.73;;;0.57;;
14903;SDS011;7543;53.148;8.234;2022-12-07T06:34:37;1.23;;;0.60;;
14903;SDS011;7543;53.148;8.234;2022-12-07T06:37:05;2.80;;;0.70;;
14903;SDS011;7543;53.148;8.234;2022-12-07T06:39:34;5.03;;;0.83;;
14903;SDS011;7543;53.148;8.234;2022-12-07T06:42:02;1.10;;;0.50;;
14903;SDS011;7543;53.148;8.234;2022-12-07T06:44:30;2.17;;;0.70;;
14903;SDS011;7543;53.148;8.234;2022-12-07T06:46:59;0.67;;;0.43;;
14903;SDS011;7543;53.148;8.234;2022-12-07T06:49:27;1.13;;;0.67;;
14903;SDS011;7543;53.148;8.234;2022-12-07T06:51:57;1.20;;;0.50;;
14903;SDS011;7543;53.148;8.234;2022-12-07T06:54:25;0.67;;;0.47;;
14903;SDS011;7543;53.148;8.234;2022-12-07T06:56:53;2.80;;;0.47;;
14903;SDS011;7543;53.148;8.234;2022-12-07T06:59:21;1.17;;;0.80;;
14903;SDS011;7543;53.148;8.234;2022-12-07T07:01:49;0.70;;;0.40;;
14903;SDS011;7543;53.148;8.234;2022-12-07T07:04:17;0.63;;;0.50;;
14903;SDS011;7543;53.148;8.234;2022-12-07T07:06:45;2.00;;;0.50;;
14903;SDS011;7543;53.148;8.234;2022-12-07T07:09:15;1.43;;;0.60;;
14903;SDS011;7543;53.148;8.234;2022-12-07T07:11:43;1.10;;;0.70;;
14903;SDS011;7543;53.148;8.234;2022-12-07T07:14:11;4.43;;;0.87;;
14903;SDS011;7543;53.148;8.234;2022-12-07T07:16:39;2.23;;;0.70;;
14903;SDS011;7543;53.148;8.234;2022-12-07T07:19:08;1.20;;;0.43;;
14903;SDS011;7543;53.148;8.234;2022-12-07T07:21:36;0.70;;;0.50;;
14903;SDS011;7543;53.148;8.234;2022-12-07T07:24:05;2.20;;;0.50;;
14903;SDS011;7543;53.148;8.234;2022-12-07T07:26:35;0.53;;;0.40;;
14903;SDS011;7543;53.148;8.234;2022-12-07T07:29:03;0.73;;;0.50;;
14903;SDS011;7543;53.148;8.234;2022-12-07T07:31:31;1.80;;;0.70;;
14903;SDS011;7543;53.148;8.234;2022-12-07T07:34:01;1.03;;;0.40;;
14903;SDS011;7543;53.148;8.234;2022-12-07T07:36:30;3.23;;;0.57;;
14903;SDS011;7543;53.148;8.234;2022-12-07T07:38:58;2.30;;;0.40;;
14903;SDS011;7543;53.148;8.234;2022-12-07T07:41:26;2.53;;;0.57;;
14903;SDS011;7543;53.148;8.234;2022-12-07T07:43:55;1.23;;;0.50;;
14903;SDS011;7543;53.148;8.234;2022-12-07T07:46:24;5.03;;;0.70;;
14903;SDS011;7543;53.148;8.234;2022-12-07T07:48:52;1.43;;;0.53;;
14903;SDS011;7543;53.148;8.234;2022-12-07T07:51:20;1.07;;;0.37;;
14903;SDS011;7543;53.148;8.234;2022-12-07T07:53:48;2.30;;;0.63;;
14903;SDS011;7543;53.148;8.234;2022-12-07T07:56:16;3.00;;;0.50;;
14903;SDS011;7543;53.148;8.234;2022-12-07T07:58:44;4.10;;;0.43;;
14903;SDS011;7543;53.148;8.234;2022-12-07T08:01:14;3.17;;;0.70;;
14903;SDS011;7543;53.148;8.234;2022-12-07T08:03:43;0.53;;;0.53;;
14903;SDS011;7543;53.148;8.234;2022-12-07T08:06:11;2.97;;;0.60;;
14903;SDS011;7543;53.148;8.234;2022-12-07T08:08:39;1.23;;;0.60;;
14903;SDS011;7543;53.148;8.234;2022-12-07T08:11:08;0.63;;;0.50;;
14903;SDS011;7543;53.148;8.234;2022-12-07T08:13:37;1.93;;;0.63;;
14903;SDS011;7543;53.148;8.234;2022-12-07T08:16:05;3.70;;;0.80;;
14903;SDS011;7543;53.148;8.234;2022-12-07T08:18:36;2.63;;;0.53;;
14903;SDS011;7543;53.148;8.234;2022-12-07T08:21:05;1.00;;;0.60;;
14903;SDS011;7543;53.148;8.234;2022-12-07T08:23:35;5.10;;;1.07;;
14903;SDS011;7543;53.148;8.234;2022-12-07T08:26:03;0.77;;;0.60;;
14903;SDS011;7543;53.148;8.234;2022-12-07T08:28:33;1.30;;;0.90;;
14903;SDS011;7543;53.148;8.234;2022-12-07T08:31:02;0.93;;;0.83;;
14903;SDS011;7543;53.148;8.234;2022-12-07T08:33:31;1.60;;;0.70;;
14903;SDS011;7543;53.148;8.234;2022-12-07T08:36:01;3.93;;;0.87;;
14903;SDS011;7543;53.148;8.234;2022-12-07T08:38:30;0.83;;;0.60;;
14903;SDS011;7543;53.148;8.234;2022-12-07T08:40:58;5.97;;;0.90;;
14903;SDS011;7543;53.148;8.234;2022-12-07T08:43:26;1.60;;;0.80;;
14903;SDS011;7543;53.148;8.234;2022-12-07T08:45:56;5.13;;;1.03;;
14903;SDS011;7543;53.148;8.234;2022-12-07T08:48:32;2.83;;;1.03;;
14903;SDS011;7543;53.148;8.234;2022-12-07T08:51:03;2.10;;;1.10;;
14903;SDS011;7543;53.148;8.234;2022-12-07T08:53:31;3.13;;;1.43;;
14903;SDS011;7543;53.148;8.234;2022-12-07T08:56:01;1.47;;;0.97;;
14903;SDS011;7543;53.148;8.234;2022-12-07T08:58:29;7.70;;;1.03;;
14903;SDS011;7543;53.148;8.234;2022-12-07T09:00:57;2.03;;;1.07;;
14903;SDS011;7543;53.148;8.234;2022-12-07T09:03:25;2.40;;;1.13;;
14903;SDS011;7543;53.148;8.234;2022-12-07T09:05:53;1.53;;;0.67;;
14903;SDS011;7543;53.148;8.234;2022-12-07T09:08:25;1.70;;;0.70;;
14903;SDS011;7543;53.148;8.234;2022-12-07T09:10:56;1.80;;;0.73;;
14903;SDS011;7543;53.148;8.234;2022-12-07T09:13:24;1.93;;;1.20;;
14903;SDS011;7543;53.148;8.234;2022-12-07T09:15:52;4.13;;;1.10;;
14903;SDS011;7543;53.148;8.234;2022-12-07T09:18:20;1.50;;;0.87;;
14903;SDS011;7543;53.148;8.234;2022-12-07T09:20:48;1.83;;;1.10;;
14903;SDS011;7543;53.148;8.234;2022-12-07T09:23:16;3.10;;;0.80;;
14903;SDS011;7543;53.148;8.234;2022-12-07T09:25:45;2.40;;;1.00;;
14903;SDS011;7543;53.148;8.234;2022-12-07T09:28:14;1.03;;;0.77;;
14903;SDS011;7543;53.148;8.234;2022-12-07T09:30:44;1.13;;;0.90;;
14903;SDS011;7543;53.148;8.234;2022-12-07T09:33:13;1.30;;;0.77;;
14903;SDS011;7543;53.148;8.234;2022-12-07T09:35:44;2.47;;;0.80;;
14903;SDS011;7543;53.148;8.234;2022-12-07T09:38:12;1.37;;;0.83;;
14903;SDS011;7543;53.148;8.234;2022-12-07T09:40:41;1.53;;;0.80;;
14903;SDS011;7543;53.148;8.234;2022-12-07T09:43:13;1.63;;;0.60;;
14903;SDS011;7543;53.148;8.234;2022-12-07T09:45:42;2.97;;;0.63;;
14903;SDS011;7543;53.148;8.234;2022-12-07T09:48:13;1.07;;;0.77;;
14903;SDS011;7543;53.148;8.234;2022-12-07T09:50:44;3.27;;;0.70;;
14903;SDS011;7543;53.148;8.234;2022-12-07T09:53:14;1.27;;;0.90;;
14903;SDS011;7543;53.148;8.234;2022-12-07T09:55:43;0.87;;;0.47;;
14903;SDS011;7543;53.148;8.234;2022-12-07T09:58:14;5.50;;;0.87;;
14903;SDS011;7543;53.148;8.234;2022-12-07T10:00:47;2.27;;;0.60;;
14903;SDS011;7543;53.148;8.234;2022-12-07T10:03:16;1.47;;;0.87;;
14903;SDS011;7543;53.148;8.234;2022-12-07T10:05:44;0.77;;;0.60;;
14903;SDS011;7543;53.148;8.234;2022-12-07T10:08:15;6.10;;;1.00;;
14903;SDS011;7543;53.148;8.234;2022-12-07T10:10:44;1.03;;;0.70;;
14903;SDS011;7543;53.148;8.234;2022-12-07T10:13:15;1.97;;;0.90;;
14903;SDS011;7543;53.148;8.234;2022-12-07T10:15:49;0.87;;;0.63;;
14903;SDS011;7543;53.148;8.234;2022-12-07T10:18:20;2.10;;;0.70;;
14903;SDS011;7543;53.148;8.234;2022-12-07T10:21:01;1.00;;;0.73;;
14903;SDS011;7543;53.148;8.234;2022-12-07T10:23:37;1.80;;;0.90;;
14903;SDS011;7543;53.148;8.234;2022-12-07T10:26:19;2.53;;;0.87;;
14903;SDS011;7543;53.148;8.234;2022-12-07T10:28:50;2.30;;;0.70;;
14903;SDS011;7543;53.148;8.234;2022-12-07T10:31:19;4.90;;;0.93;;
14903;SDS011;7543;53.148;8.234;2022-12-07T10:33:49;5.83;;;0.97;;
14903;SDS011;7543;53.148;8.234;2022-12-07T10:36:20;3.27;;;0.90;;
14903;SDS011;7543;53.148;8.234;2022-12-07T10:38:51;0.70;;;0.70;;
14903;SDS011;7543;53.148;8.234;2022-12-07T10:41:21;0.73;;;0.60;;
14903;SDS011;7543;53.148;8.234;2022-12-07T10:43:51;0.67;;;0.57;;
14903;SDS011;7543;53.148;8.234;2022-12-07T10:46:30;2.97;;;0.77;;
14903;SDS011;7543;53.148;8.234;2022-12-07T10:49:15;5.50;;;0.77;;
14903;SDS011;7543;53.148;8.234;2022-12-07T10:51:59;2.00;;;0.70;;
14903;SDS011;7543;53.148;8.234;2022-12-07T10:54:30;0.87;;;0.40;;
14903;SDS011;7543;53.148;8.234;2022-12-07T10:57:03;2.23;;;0.70;;
14903;SDS011;7543;53.148;8.234;2022-12-07T10:59:52;2.60;;;0.47;;
14903;SDS011;7543;53.148;8.234;2022-12-07T11:02:30;3.43;;;0.57;;
14903;SDS011;7543;53.148;8.234;2022-12-07T11:05:11;1.10;;;0.47;;
14903;SDS011;7543;53.148;8.234;2022-12-07T11:07:46;3.37;;;0.80;;
14903;SDS011;7543;53.148;8.234;2022-12-07T11:10:23;1.13;;;0.57;;
14903;SDS011;7543;53.148;8.234;2022-12-07T11:12:57;4.63;;;0.80;;
14903;SDS011;7543;53.148;8.234;2022-12-07T11:15:37;0.40;;;0.40;;
14903;SDS011;7543;53.148;8.234;2022-12-07T11:18:14;5.30;;;0.63;;
14903;SDS011;7543;53.148;8.234;2022-12-07T11:20:49;3.70;;;0.60;;
14903;SDS011;7543;53.148;8.234;2022-12-07T11:23:21;4.90;;;0.80;;
14903;SDS011;7543;53.148;8.234;2022-12-07T11:25:59;5.83;;;0.60;;
14903;SDS011;7543;53.148;8.234;2022-12-07T11:28:36;1.13;;;0.40;;
14903;SDS011;7543;53.148;8.234;2022-12-07T11:31:18;2.13;;;0.80;;
14903;SDS011;7543;53.148;8.234;2022-12-07T11:33:52;0.50;;;0.47;;
14903;SDS011;7543;53.148;8.234;2022-12-07T11:36:31;3.93;;;0.87;;
14903;SDS011;7543;53.148;8.234;2022-12-07T11:39:02;3.90;;;0.97;;
14903;SDS011;7543;53.148;8.234;2022-12-07T11:41:33;1.70;;;0.60;;
14903;SDS011;7543;53.148;8.234;2022-12-07T11:44:04;4.40;;;1.17;;
14903;SDS011;7543;53.148;8.234;2022-12-07T11:46:39;2.00;;;0.80;;
14903;SDS011;7543;53.148;8.234;2022-12-07T11:49:13;3.63;;;0.90;;
14903;SDS011;7543;53.148;8.234;2022-12-07T11:51:44;3.83;;;0.83;;
14903;SDS011;7543;53.148;8.234;2022-12-07T11:54:17;2.40;;;0.73;;
14903;SDS011;7543;53.148;8.234;2022-12-07T11:56:49;5.47;;;0.90;;
14903;SDS011;7543;53.148;8.234;2022-12-07T11:59:19;2.50;;;0.77;;
14903;SDS011;7543;53.148;8.234;2022-12-07T12:01:55;6.83;;;1.10;;
14903;SDS011;7543;53.148;8.234;2022-12-07T12:04:27;3.27;;;0.73;;
14903;SDS011;7543;53.148;8.234;2022-12-07T12:06:59;2.03;;;0.90;;
14903;SDS011;7543;53.148;8.234;2022-12-07T12:09:29;3.13;;;0.60;;
14903;SDS011;7543;53.148;8.234;2022-12-07T12:12:04;2.10;;;1.23;;
14903;SDS011;7543;53.148;8.234;2022-12-07T12:14:46;2.03;;;1.03;;
14903;SDS011;7543;53.148;8.234;2022-12-07T12:20:43;6.27;;;0.80;;
14903;SDS011;7543;53.148;8.234;2022-12-07T12:23:13;1.43;;;0.60;;
14903;SDS011;7543;53.148;8.234;2022-12-07T12:25:45;0.40;;;0.30;;
14903;SDS011;7543;53.148;8.234;2022-12-07T12:28:19;4.50;;;0.80;;
14903;SDS011;7543;53.148;8.234;2022-12-07T12:31:10;3.10;;;0.80;;
14903;SDS011;7543;53.148;8.234;2022-12-07T12:33:42;4.27;;;0.90;;
14903;SDS011;7543;53.148;8.234;2022-12-07T12:36:20;8.33;;;1.03;;
14903;SDS011;7543;53.148;8.234;2022-12-07T12:39:07;1.00;;;0.40;;
14903;SDS011;7543;53.148;8.234;2022-12-07T12:41:55;3.83;;;0.70;;
14903;SDS011;7543;53.148;8.234;2022-12-07T12:44:41;5.07;;;1.00;;
14903;SDS011;7543;53.148;8.234;2022-12-07T12:47:51;1.57;;;0.50;;
14903;SDS011;7543;53.148;8.234;2022-12-07T12:50:22;1.67;;;0.50;;
14903;SDS011;7543;53.148;8.234;2022-12-07T13:01:46;1.13;;;0.53;;
14903;SDS011;7543;53.148;8.234;2022-12-07T13:04:26;2.20;;;0.70;;
14903;SDS011;7543;53.148;8.234;2022-12-07T13:06:57;3.77;;;0.70;;
14903;SDS011;7543;53.148;8.234;2022-12-07T13:09:27;1.37;;;0.57;;
14903;SDS011;7543;53.148;8.234;2022-12-07T13:12:00;0.30;;;0.30;;
14903;SDS011;7543;53.148;8.234;2022-12-07T13:14:39;1.23;;;0.40;;
14903;SDS011;7543;53.148;8.234;2022-12-07T13:17:09;1.07;;;0.43;;
14903;SDS011;7543;53.148;8.234;2022-12-07T13:25:21;0.43;;;0.33;;
14903;SDS011;7543;53.148;8.234;2022-12-07T13:27:57;1.00;;;0.67;;
14903;SDS011;7543;53.148;8.234;2022-12-07T13:30:27;1.23;;;0.37;;
14903;SDS011;7543;53.148;8.234;2022-12-07T13:32:56;1.57;;;0.40;;
14903;SDS011;7543;53.148;8.234;2022-12-07T13:35:30;1.77;;;0.50;;
14903;SDS011;7543;53.148;8.234;2022-12-07T13:38:01;1.03;;;0.63;;
14903;SDS011;7543;53.148;8.234;2022-12-07T13:40:31;1.13;;;0.47;;
14903;SDS011;7543;53.148;8.234;2022-12-07T13:43:00;0.60;;;0.37;;
14903;SDS011;7543;53.148;8.234;2022-12-07T13:45:30;3.73;;;0.87;;
14903;SDS011;7543;53.148;8.234;2022-12-07T13:48:20;4.20;;;0.43;;
14903;SDS011;7543;53.148;8.234;2022-12-07T13:50:52;0.37;;;0.23;;
14903;SDS011;7543;53.148;8.234;2022-12-07T13:53:22;2.27;;;0.80;;
14903;SDS011;7543;53.148;8.234;2022-12-07T13:55:51;2.57;;;0.70;;
14903;SDS011;7543;53.148;8.234;2022-12-07T13:58:20;4.37;;;0.70;;
14903;SDS011;7543;53.148;8.234;2022-12-07T14:00:49;3.40;;;0.73;;
14903;SDS011;7543;53.148;8.234;2022-12-07T14:03:28;2.27;;;1.03;;
14903;SDS011;7543;53.148;8.234;2022-12-07T14:09:17;0.57;;;0.53;;
14903;SDS011;7543;53.148;8.234;2022-12-07T14:11:48;0.70;;;0.37;;
14903;SDS011;7543;53.148;8.234;2022-12-07T14:14:19;1.70;;;0.30;;
14903;SDS011;7543;53.148;8.234;2022-12-07T14:16:55;3.57;;;0.90;;
14903;SDS011;7543;53.148;8.234;2022-12-07T14:19:47;0.73;;;0.40;;
14903;SDS011;7543;53.148;8.234;2022-12-07T14:22:22;1.33;;;0.50;;
14903;SDS011;7543;53.148;8.234;2022-12-07T14:24:58;0.53;;;0.50;;
14903;SDS011;7543;53.148;8.234;2022-12-07T14:27:32;1.87;;;0.53;;
14903;SDS011;7543;53.148;8.234;2022-12-07T14:30:02;0.53;;;0.20;;
14903;SDS011;7543;53.148;8.234;2022-12-07T14:32:32;2.03;;;0.50;;
14903;SDS011;7543;53.148;8.234;2022-12-07T14:35:07;2.23;;;0.47;;
14903;SDS011;7543;53.148;8.234;2022-12-07T14:37:38;1.33;;;0.47;;
14903;SDS011;7543;53.148;8.234;2022-12-07T14:40:12;1.20;;;0.90;;
14903;SDS011;7543;53.148;8.234;2022-12-07T14:42:42;0.83;;;0.43;;
14903;SDS011;7543;53.148;8.234;2022-12-07T14:45:13;2.20;;;0.80;;
14903;SDS011;7543;53.148;8.234;2022-12-07T14:47:41;1.33;;;0.90;;
14903;SDS011;7543;53.148;8.234;2022-12-07T14:50:11;3.17;;;1.37;;
14903;SDS011;7543;53.148;8.234;2022-12-07T14:52:40;3.97;;;1.50;;
14903;SDS011;7543;53.148;8.234;2022-12-07T14:55:14;4.07;;;1.17;;
14903;SDS011;7543;53.148;8.234;2022-12-07T14:57:47;4.60;;;1.30;;
14903;SDS011;7543;53.148;8.234;2022-12-07T15:00:16;2.80;;;1.17;;
14903;SDS011;7543;53.148;8.234;2022-12-07T15:02:45;3.20;;;1.50;;
14903;SDS011;7543;53.148;8.234;2022-12-07T15:05:15;4.53;;;1.30;;
14903;SDS011;7543;53.148;8.234;2022-12-07T15:07:44;1.67;;;0.90;;
14903;SDS011;7543;53.148;8.234;2022-12-07T15:10:13;1.80;;;1.00;;
14903;SDS011;7543;53.148;8.234;2022-12-07T15:12:44;3.47;;;1.37;;
14903;SDS011;7543;53.148;8.234;2022-12-07T15:15:14;2.80;;;1.27;;
14903;SDS011;7543;53.148;8.234;2022-12-07T15:17:43;2.40;;;0.87;;
14903;SDS011;7543;53.148;8.234;2022-12-07T15:20:12;3.23;;;0.87;;
14903;SDS011;7543;53.148;8.234;2022-12-07T15:22:43;4.03;;;1.00;;
14903;SDS011;7543;53.148;8.234;2022-12-07T15:25:12;5.63;;;1.30;;
14903;SDS011;7543;53.148;8.234;2022-12-07T15:27:41;9.20;;;2.03;;
14903;SDS011;7543;53.148;8.234;2022-12-07T15:30:09;8.80;;;1.50;;
14903;SDS011;7543;53.148;8.234;2022-12-07T15:32:39;2.83;;;1.40;;
14903;SDS011;7543;53.148;8.234;2022-12-07T15:35:07;2.40;;;1.40;;
14903;SDS011;7543;53.148;8.234;2022-12-07T15:37:35;7.70;;;1.00;;
14903;SDS011;7543;53.148;8.234;2022-12-07T15:40:04;3.30;;;1.60;;
14903;SDS011;7543;53.148;8.234;2022-12-07T15:42:33;3.97;;;1.00;;
14903;SDS011;7543;53.148;8.234;2022-12-07T15:45:03;1.83;;;1.07;;
14903;SDS011;7543;53.148;8.234;2022-12-07T15:47:31;3.80;;;1.20;;